Time;durP1;ratioP1;P1;durP2;ratioP2;P2;SDS_P1;SDS_P2;PMS_P1;PMS_P2;Temp;Humidity;BMP_temperature;BMP_pressure;BME280_temperature;BME280_humidity;BME280_pressure;Samples;Min_cycle;Max_cycle;Signal;HPM_P1;HPM_P2
2023/04/25 00:01:56;;;;;;;5.47;4.20;;;;;;;4.41;100.00;100476.78;7750688;18;20000;-74
2023/04/25 00:04:22;;;;;;;6.68;4.72;;;;;;;4.32;100.00;100464.03;7791138;18;20075;-73
2023/04/25 00:06:49;;;;;;;11.35;4.97;;;;;;;4.10;100.00;100430.06;7792819;18;20005;-73
2023/04/25 00:09:16;;;;;;;5.90;4.28;;;;;;;3.83;100.00;100396.25;7791556;18;20010;-74
2023/04/25 00:11:42;;;;;;;4.32;4.03;;;;;;;3.91;100.00;100437.53;7794466;18;20037;-74
2023/04/25 00:14:09;;;;;;;5.80;5.40;;;;;;;4.19;100.00;100467.00;7757045;18;20060;-73
2023/04/25 00:16:36;;;;;;;8.98;5.00;;;;;;;3.54;100.00;100374.56;7791827;18;20005;-71
2023/04/25 00:19:05;;;;;;;4.53;4.22;;;;;;;3.74;100.00;100401.69;7749584;18;20686;-74
2023/04/25 00:21:31;;;;;;;4.18;3.85;;;;;;;4.27;100.00;100490.16;7790486;18;20097;-73
2023/04/25 00:23:58;;;;;;;4.05;3.85;;;;;;;3.77;100.00;100417.19;7789534;18;20054;-72
2023/04/25 00:26:25;;;;;;;5.07;4.30;;;;;;;3.78;100.00;100400.72;7789847;18;19990;-72
2023/04/25 00:28:51;;;;;;;4.20;4.00;;;;;;;4.16;100.00;100472.28;7789480;18;20672;-73
2023/04/25 00:31:18;;;;;;;5.75;4.38;;;;;;;3.74;100.00;100406.88;7789761;18;20435;-73
2023/04/25 00:33:44;;;;;;;4.65;4.43;;;;;;;3.98;100.00;100441.66;7790019;18;20340;-74
2023/04/25 00:36:11;;;;;;;4.60;4.32;;;;;;;4.28;100.00;100504.84;7788842;18;20023;-73
2023/04/25 00:38:40;;;;;;;4.93;4.38;;;;;;;4.24;100.00;100484.22;7788863;18;20057;-73
2023/04/25 00:41:07;;;;;;;4.30;4.07;;;;;;;3.50;100.00;100359.97;7789903;18;20000;-72
2023/04/25 00:43:35;;;;;;;5.45;4.43;;;;;;;4.06;100.00;100459.63;7790119;18;20059;-73
2023/04/25 00:46:04;;;;;;;6.35;4.85;;;;;;;4.35;100.00;100506.38;7788585;18;20462;-74
2023/04/25 00:48:31;;;;;;;5.82;5.32;;;;;;;4.31;100.00;100489.19;7788259;18;20194;-74
2023/04/25 00:50:58;;;;;;;8.80;5.80;;;;;;;4.12;100.00;100449.91;7749050;18;20033;-74
2023/04/25 00:53:27;;;;;;;5.10;4.72;;;;;;;4.39;100.00;100488.97;7788716;18;19998;-73
2023/04/25 00:55:54;;;;;;;9.07;4.47;;;;;;;4.20;100.00;100434.09;7790103;18;20002;-73
2023/04/25 00:58:21;;;;;;;8.40;4.68;;;;;;;4.49;100.00;100471.31;7745810;18;20317;-74
2023/04/25 01:00:51;;;;;;;4.70;4.40;;;;;;;4.79;100.00;100513.69;7788769;18;20002;-73
2023/04/25 01:03:21;;;;;;;3.92;3.72;;;;;;;4.59;100.00;100464.94;7789153;18;20316;-73
2023/04/25 01:05:48;;;;;;;4.60;4.13;;;;;;;4.84;100.00;100493.63;7790372;18;20002;-75
2023/04/25 01:08:15;;;;;;;5.82;4.00;;;;;;;4.55;100.00;100445.13;7790069;18;20243;-75
2023/04/25 01:10:41;;;;;;;4.95;4.65;;;;;;;4.86;100.00;100499.63;7790239;18;20002;-73
2023/04/25 01:13:08;;;;;;;4.57;4.38;;;;;;;5.17;100.00;100541.13;7788941;18;20320;-73
2023/04/25 01:15:35;;;;;;;3.85;3.65;;;;;;;5.03;100.00;100512.06;7792702;18;20394;-73
2023/04/25 01:18:06;;;;;;;5.07;4.68;;;;;;;5.17;100.00;100533.31;7755158;18;20001;-74
2023/04/25 01:20:34;;;;;;;9.23;5.40;;;;;;;5.22;100.00;100527.09;7750585;18;20131;-74
2023/04/25 01:23:02;;;;;;;9.93;4.50;;;;;;;5.25;100.00;100533.06;7790936;18;20348;-73
2023/04/25 01:25:29;;;;;;;4.78;4.43;;;;;;;5.28;100.00;100529.50;7790626;18;20015;-74
2023/04/25 01:27:57;;;;;;;15.73;4.82;;;;;;;5.27;100.00;100536.47;7789980;18;20426;-74
2023/04/25 01:30:25;;;;;;;5.20;4.78;;;;;;;4.99;100.00;100477.53;7748238;18;20014;-74
2023/04/25 01:32:56;;;;;;;4.88;4.50;;;;;;;4.62;100.00;100418.06;7789569;18;20090;-73
2023/04/25 01:35:25;;;;;;;4.32;4.03;;;;;;;5.05;100.00;100493.81;7789793;18;20036;-73
2023/04/25 01:37:52;;;;;;;6.55;4.53;;;;;;;5.41;100.00;100541.19;7790268;18;20000;-72
2023/04/25 01:40:20;;;;;;;3.50;3.38;;;;;;;5.39;100.00;100535.19;7789922;18;20443;-74
2023/04/25 01:42:47;;;;;;;11.98;4.13;;;;;;;5.26;100.00;100502.69;7788120;18;19998;-74
2023/04/25 01:45:13;;;;;;;6.25;4.57;;;;;;;4.94;100.00;100460.38;7748885;18;19994;-72
2023/04/25 01:47:40;;;;;;;4.40;4.10;;;;;;;4.75;100.00;100429.78;7791127;18;20375;-72
2023/04/25 01:50:08;;;;;;;5.45;4.95;;;;;;;5.37;100.00;100509.22;7749709;18;20004;-75
2023/04/25 01:52:34;;;;;;;4.40;4.20;;;;;;;5.56;100.00;100547.66;7749123;18;19994;-73
2023/04/25 01:55:01;;;;;;;7.97;4.30;;;;;;;5.23;100.00;100511.41;7748967;18;20002;-72
2023/04/25 01:57:28;;;;;;;7.63;4.13;;;;;;;5.58;100.00;100559.69;7791393;18;19998;-74
2023/04/25 02:00:00;;;;;;;4.43;4.22;;;;;;;4.29;100.00;100352.44;7747379;18;20410;-72
2023/04/25 02:02:27;;;;;;;5.20;4.38;;;;;;;5.52;100.00;100551.25;7749522;18;19998;-73
2023/04/25 02:04:54;;;;;;;4.22;4.03;;;;;;;5.32;100.00;100528.50;7746520;18;20002;-73
2023/04/25 02:07:21;;;;;;;5.43;4.93;;;;;;;5.45;100.00;100566.22;7747628;18;20284;-75
2023/04/25 02:09:47;;;;;;;7.63;5.28;;;;;;;5.48;100.00;100565.28;7789372;18;20006;-74
2023/04/25 02:12:14;;;;;;;4.63;4.22;;;;;;;5.46;100.00;100551.47;7788840;18;20006;-73
2023/04/25 02:14:40;;;;;;;3.80;3.60;;;;;;;5.49;100.00;100573.03;7788273;18;20375;-74
2023/04/25 02:17:06;;;;;;;6.78;4.85;;;;;;;5.24;100.00;100512.28;7789261;18;20002;-75
2023/04/25 02:19:33;;;;;;;5.13;4.53;;;;;;;3.78;100.00;100351.41;7788218;18;20013;-73
2023/04/25 02:22:00;;;;;;;4.95;4.65;;;;;;;5.59;100.00;100570.94;7791251;18;20022;-73
2023/04/25 02:24:27;;;;;;;4.63;4.22;;;;;;;5.59;100.00;100571.81;7787655;18;20041;-75
2023/04/25 02:26:55;;;;;;;4.03;3.83;;;;;;;5.58;100.00;100577.91;7787332;18;20002;-75
2023/04/25 02:29:22;;;;;;;10.00;4.68;;;;;;;5.60;100.00;100570.91;7785861;18;20053;-74
2023/04/25 02:31:49;;;;;;;3.90;3.70;;;;;;;5.62;100.00;100570.88;7788910;18;20023;-74
2023/04/25 02:34:16;;;;;;;4.80;4.55;;;;;;;4.81;100.00;100423.50;7787185;18;20001;-73
2023/04/25 02:36:42;;;;;;;4.97;4.65;;;;;;;4.95;100.00;100456.84;7787983;18;20364;-73
2023/04/25 02:39:08;;;;;;;3.92;3.72;;;;;;;4.86;100.00;100438.97;7787454;18;20018;-73
2023/04/25 02:41:35;;;;;;;4.22;3.92;;;;;;;5.65;100.00;100585.53;7788565;18;19994;-73
2023/04/25 02:44:01;;;;;;;4.75;4.32;;;;;;;5.51;100.00;100559.94;7788242;18;20069;-73
2023/04/25 02:46:28;;;;;;;4.43;4.15;;;;;;;3.91;100.00;100285.25;7789293;18;20479;-74
2023/04/25 02:49:05;;;;;;;4.22;4.03;;;;;;;5.61;100.00;100566.53;7787785;18;19994;-73
2023/04/25 02:51:32;;;;;;;9.93;4.15;;;;;;;5.19;100.00;100486.41;7787998;18;20710;-72
2023/04/25 02:53:59;;;;;;;4.85;4.55;;;;;;;5.46;100.00;100525.44;7789081;18;20005;-72
2023/04/25 02:56:26;;;;;;;5.75;4.03;;;;;;;5.66;100.00;100559.44;7790063;18;20001;-72
2023/04/25 02:58:53;;;;;;;3.97;3.78;;;;;;;5.29;100.00;100498.25;7789585;18;20013;-72
2023/04/25 03:01:20;;;;;;;4.22;4.03;;;;;;;5.34;100.00;100522.34;7789210;18;20307;-73
2023/04/25 03:03:46;;;;;;;4.70;4.47;;;;;;;5.62;100.00;100554.41;7798455;18;19994;-72
2023/04/25 03:06:13;;;;;;;4.25;4.03;;;;;;;5.54;100.00;100541.63;7790052;18;20005;-72
2023/04/25 03:08:40;;;;;;;4.95;4.15;;;;;;;5.48;100.00;100536.66;7789579;18;20392;-72
2023/04/25 03:11:06;;;;;;;4.22;4.00;;;;;;;5.58;100.00;100557.09;7790679;18;20079;-72
2023/04/25 03:13:33;;;;;;;4.72;4.43;;;;;;;5.62;100.00;100559.59;7789479;18;20056;-72
2023/04/25 03:15:59;;;;;;;4.18;3.97;;;;;;;5.43;100.00;100531.56;7790192;18;20057;-72
2023/04/25 03:18:26;;;;;;;4.13;3.83;;;;;;;4.89;100.00;100450.13;7789094;18;20006;-74
2023/04/25 03:20:52;;;;;;;5.13;4.68;;;;;;;5.58;100.00;100567.50;7789559;18;20060;-72
2023/04/25 03:23:19;;;;;;;4.88;4.40;;;;;;;5.20;100.00;100512.38;7790008;18;20664;-72
2023/04/25 03:25:45;;;;;;;6.60;4.30;;;;;;;5.56;100.00;100569.31;7790664;18;20204;-72
2023/04/25 03:28:12;;;;;;;4.75;4.47;;;;;;;4.94;100.00;100470.78;7789530;18;19998;-73
2023/04/25 03:30:38;;;;;;;4.65;4.20;;;;;;;4.62;100.00;100425.88;7789418;18;20070;-71
2023/04/25 03:33:04;;;;;;;4.93;4.53;;;;;;;5.49;100.00;100570.44;7789276;18;20059;-72
2023/04/25 03:35:33;;;;;;;4.07;3.88;;;;;;;5.33;100.00;100549.28;7790201;18;20097;-72
2023/04/25 03:37:59;;;;;;;4.15;3.85;;;;;;;4.21;100.00;100378.66;7789267;18;19998;-72
2023/04/25 03:40:26;;;;;;;5.60;4.75;;;;;;;5.19;100.00;100538.44;7789837;18;20435;-71
2023/04/25 03:42:52;;;;;;;4.15;3.85;;;;;;;5.52;100.00;100575.53;7789148;18;20013;-70
2023/04/25 03:45:19;;;;;;;4.28;4.07;;;;;;;5.47;100.00;100579.19;7789411;18;20025;-71
2023/04/25 03:47:45;;;;;;;3.95;3.75;;;;;;;5.46;100.00;100575.72;7790634;18;20028;-72
2023/04/25 03:50:12;;;;;;;4.82;4.43;;;;;;;5.47;100.00;100580.06;7789986;18;20008;-72
2023/04/25 03:52:38;;;;;;;5.05;4.65;;;;;;;4.03;100.00;100368.81;7790504;18;20006;-72
2023/04/25 03:55:05;;;;;;;7.28;4.82;;;;;;;5.42;100.00;100589.75;7789006;18;20142;-72
2023/04/25 03:57:33;;;;;;;12.15;4.88;;;;;;;5.42;100.00;100584.53;7788450;18;20007;-72
2023/04/25 03:59:59;;;;;;;5.93;5.32;;;;;;;4.97;100.00;100517.47;7788797;18;19994;-73
2023/04/25 04:02:26;;;;;;;6.43;4.43;;;;;;;5.40;100.00;100583.75;7787354;18;20077;-73
2023/04/25 04:04:56;;;;;;;12.98;4.65;;;;;;;4.97;100.00;100553.88;7789375;18;20009;-71
2023/04/25 04:07:23;;;;;;;4.72;4.43;;;;;;;5.34;100.00;100583.94;7747598;18;20566;-72
2023/04/25 04:09:49;;;;;;;4.57;4.20;;;;;;;5.33;100.00;100582.22;7788794;18;20057;-72
2023/04/25 04:12:16;;;;;;;4.55;4.18;;;;;;;3.80;100.00;100365.19;7790421;18;20013;-71
2023/04/25 04:14:42;;;;;;;4.10;3.90;;;;;;;5.32;100.00;100590.94;7788483;18;20535;-71
2023/04/25 04:17:08;;;;;;;9.05;4.97;;;;;;;4.84;100.00;100521.38;7789668;18;20009;-70
2023/04/25 04:19:35;;;;;;;4.32;4.03;;;;;;;5.31;100.00;100600.50;7790241;18;20430;-71
2023/04/25 04:22:01;;;;;;;6.88;4.75;;;;;;;5.32;100.00;100606.56;7749507;18;20005;-72
2023/04/25 04:24:28;;;;;;;9.10;4.93;;;;;;;5.24;100.00;100619.81;7790271;18;20002;-71
2023/04/25 04:26:54;;;;;;;8.15;3.72;;;;;;;5.28;100.00;100591.94;7792583;18;19998;-71
2023/04/25 04:29:22;;;;;;;10.75;5.72;;;;;;;5.24;100.00;100604.19;7788197;18;19994;-71
2023/04/25 04:31:50;;;;;;;5.32;4.93;;;;;;;4.95;100.00;100553.94;7792205;18;20526;-73
2023/04/25 04:34:18;;;;;;;4.95;4.65;;;;;;;5.25;100.00;100607.63;7790632;18;20009;-71
2023/04/25 04:36:46;;;;;;;4.10;3.90;;;;;;;4.40;100.00;100465.50;7792286;18;20388;-73
2023/04/25 04:39:13;;;;;;;5.20;4.88;;;;;;;5.27;100.00;100605.84;7789232;18;20002;-70
2023/04/25 04:41:40;;;;;;;5.43;4.93;;;;;;;5.26;100.00;100607.59;7792112;18;19998;-71
2023/04/25 04:44:08;;;;;;;5.18;4.78;;;;;;;5.34;100.00;100612.56;7791646;18;20002;-71
2023/04/25 04:46:37;;;;;;;5.50;5.00;;;;;;;5.36;100.00;100622.03;7791104;18;20005;-70
2023/04/25 04:49:09;;;;;;;4.90;4.60;;;;;;;5.35;100.00;100622.94;7791032;18;20002;-70
2023/04/25 04:51:36;;;;;;;5.03;4.15;;;;;;;5.52;100.00;100629.34;7791931;18;19998;-70
2023/04/25 04:54:03;;;;;;;8.48;5.75;;;;;;;5.71;100.00;100633.06;7791137;18;19994;-69
2023/04/25 04:56:32;;;;;;;5.10;4.68;;;;;;;5.75;100.00;100639.88;7792129;18;20566;-70
2023/04/25 04:58:59;;;;;;;4.72;4.32;;;;;;;5.82;100.00;100637.06;7791180;18;20050;-70
2023/04/25 05:01:26;;;;;;;7.85;5.20;;;;;;;5.48;100.00;100565.28;7748512;18;20548;-70
2023/04/25 05:03:53;;;;;;;4.95;4.43;;;;;;;5.83;100.00;100644.78;7792092;18;20656;-70
2023/04/25 05:06:20;;;;;;;5.38;4.88;;;;;;;5.81;100.00;100644.00;7792317;18;20437;-70
2023/04/25 05:08:47;;;;;;;4.55;4.25;;;;;;;5.80;100.00;100648.34;7792563;18;20058;-71
2023/04/25 05:11:13;;;;;;;4.47;4.18;;;;;;;5.97;100.00;100650.44;7791265;18;20068;-71
2023/04/25 05:13:40;;;;;;;10.48;5.50;;;;;;;6.15;100.00;100661.13;7795452;18;20253;-71
2023/04/25 05:16:06;;;;;;;8.30;4.50;;;;;;;5.89;100.00;100592.50;7794554;18;20154;-71
2023/04/25 05:18:33;;;;;;;5.15;4.32;;;;;;;6.23;100.00;100626.97;7791766;18;19994;-71
2023/04/25 05:20:59;;;;;;;4.93;4.38;;;;;;;6.86;100.00;100684.69;7790685;18;20352;-71
2023/04/25 05:23:27;;;;;;;5.57;5.18;;;;;;;6.94;100.00;100667.00;7749446;18;20071;-71
2023/04/25 05:25:54;;;;;;;8.20;4.55;;;;;;;6.58;100.00;100590.06;7791936;18;20576;-71
2023/04/25 05:28:21;;;;;;;11.25;5.50;;;;;;;7.38;100.00;100659.22;7789871;18;20650;-72
2023/04/25 05:30:47;;;;;;;8.35;4.65;;;;;;;7.19;100.00;100640.78;7790097;18;20041;-71
2023/04/25 05:33:14;;;;;;;5.00;4.70;;;;;;;7.68;100.00;100657.13;7790763;18;20006;-71
2023/04/25 05:35:41;;;;;;;4.70;4.35;;;;;;;7.37;96.23;100613.13;7792558;18;19998;-70
2023/04/25 05:38:07;;;;;;;5.18;4.78;;;;;;;7.14;95.93;100609.66;7750498;18;20001;-70
2023/04/25 05:40:37;;;;;;;18.27;5.35;;;;;;;6.62;96.18;100530.84;7792435;18;20073;-71
2023/04/25 05:43:03;;;;;;;5.30;4.90;;;;;;;7.06;95.57;100609.13;7790317;18;20025;-70
2023/04/25 05:45:29;;;;;;;25.13;5.43;;;;;;;6.92;96.63;100619.25;7790008;18;20498;-70
2023/04/25 05:47:56;;;;;;;7.85;5.38;;;;;;;6.82;97.97;100623.97;7789902;18;20001;-71
2023/04/25 05:50:22;;;;;;;7.85;5.22;;;;;;;7.08;97.35;100636.00;7790131;18;20006;-70
2023/04/25 05:52:49;;;;;;;4.68;4.38;;;;;;;7.40;96.80;100649.56;7789229;18;19994;-71
2023/04/25 05:55:16;;;;;;;5.18;4.78;;;;;;;7.23;94.00;100639.75;7788282;18;20289;-70
2023/04/25 05:57:44;;;;;;;10.68;4.63;;;;;;;7.38;92.70;100633.09;7790843;18;20072;-70
2023/04/25 06:00:14;;;;;;;18.15;4.85;;;;;;;7.40;91.99;100631.28;7837248;18;20644;-71
2023/04/25 06:02:41;;;;;;;6.13;5.15;;;;;;;6.74;92.04;100506.03;7789306;18;20526;-70
2023/04/25 06:05:08;;;;;;;5.40;4.88;;;;;;;7.40;90.47;100568.63;7837217;18;20051;-70
2023/04/25 06:07:35;;;;;;;4.60;4.30;;;;;;;7.67;90.35;100615.38;7792867;18;20001;-71
2023/04/25 06:10:01;;;;;;;6.40;4.90;;;;;;;7.63;88.88;100613.81;7839613;18;20005;-71
2023/04/25 06:12:28;;;;;;;10.35;4.68;;;;;;;7.30;88.53;100602.06;7791439;18;20057;-71
2023/04/25 06:14:54;;;;;;;4.57;4.25;;;;;;;7.13;88.52;100597.50;7837599;18;20866;-72
2023/04/25 06:17:21;;;;;;;9.20;5.00;;;;;;;7.35;89.75;100625.38;7792712;18;19994;-71
2023/04/25 06:19:47;;;;;;;8.00;5.00;;;;;;;7.27;89.16;100623.06;7840749;18;20030;-70
2023/04/25 06:22:13;;;;;;;12.50;4.63;;;;;;;7.24;87.14;100601.47;7792277;18;20005;-71
2023/04/25 06:24:40;;;;;;;5.72;5.20;;;;;;;7.38;87.08;100604.38;7838265;18;20310;-70
2023/04/25 06:27:06;;;;;;;4.35;4.15;;;;;;;7.48;87.26;100610.94;7791579;18;20621;-70
2023/04/25 06:29:33;;;;;;;15.15;4.82;;;;;;;7.06;86.79;100551.72;7836762;18;20002;-71
2023/04/25 06:32:01;;;;;;;5.47;4.95;;;;;;;7.16;87.74;100602.63;7791224;18;20000;-70
2023/04/25 06:34:28;;;;;;;11.98;5.13;;;;;;;7.02;87.34;100597.09;7794255;18;20009;-71
2023/04/25 06:36:54;;;;;;;11.27;4.88;;;;;;;7.01;89.12;100605.81;7790472;18;19998;-70
2023/04/25 06:39:23;;;;;;;13.95;5.00;;;;;;;6.70;89.08;100554.84;7829475;18;20001;-71
2023/04/25 06:41:49;;;;;;;7.40;5.03;;;;;;;6.62;88.47;100550.84;7791029;18;20006;-70
2023/04/25 06:44:16;;;;;;;6.60;4.25;;;;;;;7.03;87.84;100609.22;7836036;18;20001;-70
2023/04/25 06:46:42;;;;;;;3.97;3.78;;;;;;;7.01;87.49;100592.78;7791517;18;20061;-70
2023/04/25 06:49:08;;;;;;;5.70;5.20;;;;;;;7.45;88.48;100644.97;7838531;18;20008;-71
2023/04/25 06:51:35;;;;;;;12.32;4.40;;;;;;;7.71;87.44;100643.09;7790600;18;19998;-71
2023/04/25 06:54:03;;;;;;;5.82;5.20;;;;;;;7.69;85.53;100613.56;7837186;18;20505;-71
2023/04/25 06:56:32;;;;;;;7.03;4.75;;;;;;;7.69;85.31;100632.69;7790426;18;20535;-71
2023/04/25 06:59:00;;;;;;;9.48;5.43;;;;;;;7.46;84.50;100572.75;7839290;18;20383;-71
2023/04/25 07:01:27;;;;;;;7.50;4.88;;;;;;;7.82;83.69;100619.13;7790803;18;20002;-70
2023/04/25 07:03:53;;;;;;;4.45;4.15;;;;;;;7.81;82.33;100602.59;7836314;18;20018;-70
2023/04/25 07:06:20;;;;;;;5.80;4.80;;;;;;;8.07;81.44;100609.31;7793450;18;20211;-70
2023/04/25 07:08:46;;;;;;;4.50;4.22;;;;;;;7.71;79.94;100538.59;7797152;18;20005;-70
2023/04/25 07:11:16;;;;;;;12.48;4.30;;;;;;;7.85;78.70;100536.22;7791489;18;20505;-69
2023/04/25 07:13:42;;;;;;;4.72;4.43;;;;;;;8.38;78.43;100580.06;7838004;18;20148;-70
2023/04/25 07:16:09;;;;;;;5.38;4.90;;;;;;;7.98;77.17;100505.22;7790853;18;19990;-71
2023/04/25 07:18:35;;;;;;;5.07;4.70;;;;;;;8.69;77.21;100586.53;7837286;18;20009;-71
2023/04/25 07:21:02;;;;;;;4.82;4.53;;;;;;;8.57;76.25;100516.50;7790946;18;20009;-71
2023/04/25 07:23:28;;;;;;;5.60;5.07;;;;;;;9.20;75.12;100573.72;7837688;18;20068;-71
2023/04/25 07:25:55;;;;;;;5.38;4.95;;;;;;;8.99;74.51;100525.84;7789592;18;19994;-71
2023/04/25 07:28:22;;;;;;;5.13;4.82;;;;;;;7.84;73.69;100397.81;7835308;18;19997;-71
2023/04/25 07:30:48;;;;;;;6.20;5.40;;;;;;;8.11;74.30;100448.84;7788629;18;19998;-71
2023/04/25 07:33:14;;;;;;;17.67;4.50;;;;;;;8.08;74.67;100442.91;7835938;18;20565;-70
2023/04/25 07:35:41;;;;;;;5.00;4.60;;;;;;;8.31;74.85;100517.66;7789719;18;20005;-70
2023/04/25 07:38:08;;;;;;;4.82;4.53;;;;;;;8.29;74.73;100517.72;7836812;18;19997;-70
2023/04/25 07:40:35;;;;;;;7.30;4.93;;;;;;;8.29;75.78;100520.34;7791566;18;20076;-70
2023/04/25 07:43:01;;;;;;;4.63;4.32;;;;;;;8.26;75.31;100519.63;7839142;18;19997;-70
2023/04/25 07:45:28;;;;;;;5.00;4.70;;;;;;;8.15;76.21;100522.72;7749904;18;20002;-70
2023/04/25 07:47:57;;;;;;;17.48;4.78;;;;;;;8.47;76.30;100551.84;7836625;18;20048;-71
2023/04/25 07:50:23;;;;;;;5.75;5.03;;;;;;;8.14;74.81;100498.38;7791161;18;20052;-70
2023/04/25 07:52:50;;;;;;;4.45;4.25;;;;;;;8.13;76.10;100522.78;7837904;18;20024;-70
2023/04/25 07:55:16;;;;;;;13.30;4.68;;;;;;;8.07;75.34;100519.63;7789502;18;20029;-70
2023/04/25 07:57:43;;;;;;;4.40;4.15;;;;;;;8.14;74.30;100498.38;7839625;18;20010;-70
2023/04/25 08:00:11;;;;;;;4.53;4.15;;;;;;;8.29;73.28;100509.03;7789612;18;20008;-72
2023/04/25 08:02:37;;;;;;;7.22;5.50;;;;;;;7.88;73.17;100405.47;7790090;18;20073;-71
2023/04/25 08:05:04;;;;;;;4.57;4.10;;;;;;;7.64;73.43;100351.72;7783748;18;20025;-71
2023/04/25 08:07:31;;;;;;;4.53;4.28;;;;;;;8.15;72.57;100434.69;7789169;18;20010;-71
2023/04/25 08:09:58;;;;;;;5.00;4.53;;;;;;;8.02;72.23;100376.09;7788255;18;20056;-71
2023/04/25 08:12:24;;;;;;;6.00;4.38;;;;;;;8.78;71.57;100491.09;7788319;18;20066;-70
2023/04/25 08:14:51;;;;;;;8.10;4.75;;;;;;;8.70;69.89;100457.44;7787684;18;20090;-70
2023/04/25 08:17:17;;;;;;;5.15;4.85;;;;;;;8.89;69.42;100457.38;7788237;18;20005;-70
2023/04/25 08:19:44;;;;;;;5.75;4.35;;;;;;;8.46;67.85;100348.75;7787929;18;20062;-71
2023/04/25 08:22:10;;;;;;;4.20;4.00;;;;;;;8.72;65.31;100319.56;7787761;18;20521;-71
2023/04/25 08:24:37;;;;;;;5.07;4.75;;;;;;;8.63;65.13;100320.00;7787441;18;20016;-71
2023/04/25 08:27:06;;;;;;;4.70;4.45;;;;;;;8.69;66.03;100348.47;7788913;18;19994;-71
2023/04/25 08:29:32;;;;;;;4.93;4.68;;;;;;;7.76;67.11;100244.94;7787320;18;20005;-70
2023/04/25 08:31:59;;;;;;;8.63;4.72;;;;;;;8.39;67.31;100390.88;7788762;18;20006;-71
2023/04/25 08:34:26;;;;;;;4.70;4.40;;;;;;;7.85;68.49;100302.88;7747703;18;20008;-71
2023/04/25 08:36:52;;;;;;;12.35;4.45;;;;;;;9.17;68.23;100454.25;7788700;18;20005;-70
2023/04/25 08:39:20;;;;;;;4.57;4.35;;;;;;;9.47;66.73;100440.50;7747152;18;20121;-71
2023/04/25 08:41:47;;;;;;;4.60;4.20;;;;;;;9.82;66.28;100445.66;7749096;18;20061;-71
2023/04/25 08:44:14;;;;;;;9.77;4.50;;;;;;;10.01;64.51;100395.72;7788374;18;19994;-71
2023/04/25 08:46:41;;;;;;;7.85;5.38;;;;;;;10.23;63.01;100345.56;7787457;18;20060;-71
2023/04/25 08:49:11;;;;;;;7.53;4.55;;;;;;;10.49;61.54;100311.78;7788041;18;20053;-70
2023/04/25 08:51:46;;;;;;;4.60;4.30;;;;;;;9.73;60.41;100174.50;7788038;18;20022;-71
2023/04/25 08:54:14;;;;;;;6.55;4.47;;;;;;;10.61;58.52;100227.09;7787816;18;20002;-71
2023/04/25 08:57:03;;;;;;;4.70;4.40;;;;;;;10.41;58.57;100188.09;7788304;18;20446;-71
2023/04/25 08:59:31;;;;;;;6.43;5.32;;;;;;;10.52;58.47;100204.03;7787781;18;20009;-71
2023/04/25 09:01:57;;;;;;;4.45;4.20;;;;;;;10.34;58.15;100177.13;7787853;18;20162;-71
2023/04/25 09:04:24;;;;;;;5.22;4.82;;;;;;;10.29;59.40;100213.25;7787739;18;20005;-70
2023/04/25 09:06:50;;;;;;;5.07;4.70;;;;;;;10.52;59.04;100219.78;7747297;18;20006;-71
2023/04/25 09:09:17;;;;;;;5.38;4.75;;;;;;;10.08;59.34;100183.88;7788799;18;20011;-71
2023/04/25 09:11:46;;;;;;;4.95;4.65;;;;;;;8.49;59.62;99972.06;7790711;18;20082;-71
2023/04/25 09:14:20;;;;;;;4.53;4.32;;;;;;;9.68;60.63;100235.94;7789977;18;20067;-72
2023/04/25 09:16:57;;;;;;;5.03;4.50;;;;;;;10.52;59.33;100275.75;7790921;18;20512;-71
2023/04/25 09:19:27;;;;;;;4.90;4.60;;;;;;;10.48;57.27;100156.13;7790637;18;20006;-71
2023/04/25 09:22:06;;;;;;;4.60;4.40;;;;;;;9.96;56.15;100038.63;7789900;18;20308;-70
2023/04/25 09:24:35;;;;;;;4.80;4.55;;;;;;;10.02;57.33;100102.97;7797344;18;20163;-71
2023/04/25 09:27:03;;;;;;;4.72;4.53;;;;;;;9.84;58.01;100149.44;7789321;18;20447;-72
2023/04/25 09:29:36;;;;;;;11.98;4.60;;;;;;;9.72;58.04;100116.91;7786776;18;20432;-70
2023/04/25 09:32:22;;;;;;;10.63;4.50;;;;;;;9.33;56.68;100013.53;7787376;18;20064;-71
2023/04/25 09:34:52;;;;;;;4.95;4.40;;;;;;;9.11;56.97;100004.28;7787086;18;20064;-72
2023/04/25 09:37:20;;;;;;;26.15;24.15;;;;;;;8.38;59.24;100002.22;7724738;18;20891;-70
2023/04/25 09:39:48;;;;;;;5.35;4.30;;;;;;;9.79;58.73;100202.13;7594931;18;19994;-72
2023/04/25 09:42:16;;;;;;;4.35;4.10;;;;;;;9.36;57.21;100060.47;7788422;18;20068;-70
2023/04/25 09:44:47;;;;;;;7.68;4.20;;;;;;;9.58;57.39;100104.63;7787769;18;20002;-73
2023/04/25 09:47:16;;;;;;;5.15;4.85;;;;;;;9.41;57.88;100102.97;7788475;18;20022;-71
2023/04/25 09:49:43;;;;;;;4.55;4.18;;;;;;;9.19;58.41;100101.56;7787967;18;20002;-72
2023/04/25 09:52:15;;;;;;;4.35;4.15;;;;;;;9.32;58.07;100122.69;7789257;18;19998;-70
2023/04/25 09:54:41;;;;;;;6.88;4.65;;;;;;;8.99;57.70;100065.19;7788316;18;19998;-71
2023/04/25 09:57:17;;;;;;;4.25;4.05;;;;;;;10.17;57.79;100227.91;7791182;18;20118;-72
2023/04/25 09:59:51;;;;;;;3.95;3.78;;;;;;;10.84;55.81;100186.31;7748857;18;20319;-70
2023/04/25 10:02:20;;;;;;;4.00;3.80;;;;;;;10.74;52.80;100012.84;7790040;18;20013;-71
2023/04/25 10:04:53;;;;;;;5.10;4.80;;;;;;;10.57;52.07;99944.84;7783238;18;20249;-73
2023/04/25 10:07:25;;;;;;;5.30;4.80;;;;;;;9.29;52.02;99765.91;7786346;18;20006;-72
2023/04/25 10:10:02;;;;;;;5.53;5.13;;;;;;;9.73;54.49;99961.41;7787851;18;20406;-74
2023/04/25 10:12:33;;;;;;;4.75;4.50;;;;;;;9.77;55.42;100070.34;7788303;18;20009;-70
2023/04/25 10:15:01;;;;;;;9.52;4.63;;;;;;;9.81;57.12;100140.00;7745116;18;20407;-71
2023/04/25 10:17:27;;;;;;;4.97;4.60;;;;;;;9.49;57.39;100113.03;7785790;18;20195;-73
2023/04/25 10:19:55;;;;;;;4.75;4.35;;;;;;;8.78;56.73;100000.06;7785392;18;20002;-71
2023/04/25 10:22:39;;;;;;;4.50;4.30;;;;;;;8.66;56.62;99994.63;7786305;18;20018;-72
2023/04/25 10:25:08;;;;;;;4.35;4.15;;;;;;;9.23;56.82;100098.78;7786572;18;20009;-71
2023/04/25 10:27:35;;;;;;;10.75;4.63;;;;;;;9.29;56.71;100111.53;7786430;18;20017;-71
2023/04/25 10:30:12;;;;;;;4.30;4.10;;;;;;;9.81;55.99;100132.13;7786058;18;19994;-71
2023/04/25 10:32:38;;;;;;;4.50;4.10;;;;;;;10.13;54.71;100185.28;7787831;18;20021;-70
2023/04/25 10:35:12;;;;;;;4.28;4.07;;;;;;;10.30;54.45;100150.25;7787180;18;20001;-72
2023/04/25 10:38:00;;;;;;;4.53;4.32;;;;;;;10.29;53.95;100138.03;7786779;18;20417;-70
2023/04/25 10:40:27;;;;;;;4.30;4.10;;;;;;;10.65;55.03;100252.22;7788062;18;20030;-70
2023/04/25 10:42:54;;;;;;;7.03;4.20;;;;;;;10.56;55.25;100221.28;7835162;18;20002;-71
2023/04/25 10:45:23;;;;;;;6.05;4.05;;;;;;;11.08;54.43;100257.50;7787978;18;20084;-70
2023/04/25 10:47:50;;;;;;;5.43;4.13;;;;;;;10.94;51.87;100113.97;7834672;18;19997;-72
2023/04/25 10:50:16;;;;;;;5.00;4.70;;;;;;;11.04;50.58;100071.34;7788729;18;20139;-70
2023/04/25 10:52:44;;;;;;;4.30;4.10;;;;;;;11.62;52.38;100262.03;7794038;18;20030;-71
2023/04/25 10:55:10;;;;;;;4.70;4.40;;;;;;;12.00;50.91;100228.97;7789091;18;20013;-71
2023/04/25 10:57:47;;;;;;;4.85;4.60;;;;;;;12.07;49.38;100167.16;7788840;18;19998;-71
2023/04/25 11:00:16;;;;;;;6.55;5.28;;;;;;;12.10;48.85;100116.97;7788682;18;19997;-72
2023/04/25 11:02:47;;;;;;;5.22;4.93;;;;;;;12.45;49.43;100219.81;7835259;18;20002;-71
2023/04/25 11:05:31;;;;;;;4.82;4.47;;;;;;;11.98;49.26;100132.59;7787787;18;20091;-71
2023/04/25 11:08:00;;;;;;;4.95;4.65;;;;;;;11.13;49.63;100084.72;7832474;18;19989;-71
2023/04/25 11:10:36;;;;;;;5.50;5.13;;;;;;;11.06;50.65;100156.13;7789996;18;20002;-71
2023/04/25 11:13:04;;;;;;;5.03;4.72;;;;;;;11.44;51.19;100232.50;7836506;18;19998;-71
2023/04/25 11:15:30;;;;;;;4.75;4.50;;;;;;;11.01;52.02;100211.56;7788531;18;20002;-71
2023/04/25 11:17:57;;;;;;;4.80;4.50;;;;;;;10.56;50.90;100118.94;7836333;18;20489;-71
2023/04/25 11:20:27;;;;;;;4.80;4.50;;;;;;;11.34;51.52;100276.06;7788046;18;20068;-70
2023/04/25 11:22:57;;;;;;;6.93;4.78;;;;;;;11.61;51.09;100291.91;7834620;18;20418;-71
2023/04/25 11:25:24;;;;;;;4.57;4.38;;;;;;;11.45;49.02;100173.75;7787932;18;20062;-70
2023/04/25 11:28:01;;;;;;;5.20;4.90;;;;;;;11.34;48.65;100144.69;7791459;18;20449;-71
2023/04/25 11:30:28;;;;;;;5.00;4.70;;;;;;;11.74;48.99;100221.81;7745135;18;20009;-70